Chang Sheng — V3PK — position and weather

sailwx.info

Track history (hours):
 
Tides and Currents Weather Stations Pressure Air Temp Water Temp Dewpoint Dewpoint Depression Visibility Wind Speed Wind Dir Waves Ship Positions

Chang Sheng

Last reported at 2014-Oct-20 10:33 UTC. Time now 2014-Oct-20 11:27 UTC.
Position N 32°02' E 120°29'.

Length 86 m; draft 3.8 m.

Type: Cargo ship. MMSI: 312161000.

Date/timePositionNaut miles runAvg speedWind from/ knotsBaromVisibWave heightAir tempDewpointWater temp
2014-Oct-20 10:33N 32°02' E 120°29'4 4.2
2014-Oct-20 09:29N 31°58' E 120°26'0 0.0
2014-Oct-20 08:29N 31°58' E 120°26'0 0.0
2014-Oct-20 07:32N 31°58' E 120°26'0 0.0
2014-Oct-20 06:32N 31°58' E 120°26'0 0.0
2014-Oct-20 05:29N 31°58' E 120°26'0 0.0
2014-Oct-20 04:32N 31°58' E 120°26'0 0.0
2014-Oct-20 03:29N 31°58' E 120°26'0 0.1
2014-Oct-20 02:29N 31°58' E 120°26'0 0.1
2014-Oct-20 01:29N 31°58' E 120°26'0 0.1
2014-Oct-20 00:32N 31°58' E 120°26'0 0.0
2014-Oct-19 23:29N 31°58' E 120°26'0 0.0
2014-Oct-19 22:32N 31°58' E 120°26'0 0.0
2014-Oct-19 21:32N 31°58' E 120°26'0 0.0
2014-Oct-19 20:29N 31°58' E 120°26'0 0.0
2014-Oct-19 19:32N 31°58' E 120°26'0 0.0
2014-Oct-19 18:32N 31°58' E 120°26'0 0.0
2014-Oct-19 17:30N 31°58' E 120°26'0 0.0
2014-Oct-19 16:32N 31°58' E 120°26'0 0.0
2014-Oct-19 15:32N 31°58' E 120°26'0 0.0
2014-Oct-19 14:29N 31°58' E 120°26'0 0.0
2014-Oct-19 13:32N 31°58' E 120°26'0 0.0
2014-Oct-19 12:26N 31°58' E 120°26'0 0.0
2014-Oct-19 11:30N 31°58' E 120°26'0 0.0
2014-Oct-19 10:29N 31°58' E 120°26'0 0.0
2014-Oct-19 09:29N 31°58' E 120°26'0 0.0
2014-Oct-19 08:29N 31°58' E 120°26'0 0.0
2014-Oct-19 07:32N 31°58' E 120°26'0 0.0
2014-Oct-19 06:32N 31°58' E 120°26'3 3.3
2014-Oct-19 05:33N 32°01' E 120°27'7 7.1
2014-Oct-19 04:33N 32°00' E 120°35'8 7.8
2014-Oct-19 03:33N 32°00' E 120°44'0 0.4
2014-Oct-19 02:31N 31°60' E 120°45'0 0.1
2014-Oct-19 01:28N 31°60' E 120°45'0 0.0
2014-Oct-19 00:31N 31°60' E 120°45'0 0.0
2014-Oct-18 23:22N 31°60' E 120°45'0 0.0
2014-Oct-18 22:28N 31°60' E 120°45'0 0.0
2014-Oct-18 21:31N 31°60' E 120°45'0 0.0
2014-Oct-18 20:31N 31°60' E 120°45'0 0.0
2014-Oct-18 19:31N 31°60' E 120°45'0 0.0
2014-Oct-18 18:28N 31°60' E 120°45'0 0.0
2014-Oct-18 17:28N 31°60' E 120°45'0 0.1
2014-Oct-18 16:28N 31°60' E 120°44'0 0.0
2014-Oct-18 15:22N 31°60' E 120°44'0 0.0
2014-Oct-18 14:22N 31°60' E 120°44'0 0.1
2014-Oct-18 13:31N 31°60' E 120°45'0 0.1
2014-Oct-18 12:25N 31°60' E 120°45'0 0.0
2014-Oct-18 11:31N 31°60' E 120°45'0 0.0
2014-Oct-18 10:28N 31°60' E 120°45'0 0.0
2014-Oct-18 09:28N 31°60' E 120°45'0 0.0
2014-Oct-18 08:31N 31°60' E 120°45'0 0.0
2014-Oct-18 07:31N 31°60' E 120°45'0 0.0
2014-Oct-18 06:28N 31°60' E 120°45'0 0.0
2014-Oct-18 05:28N 31°60' E 120°45'0 0.1
2014-Oct-18 04:31N 31°60' E 120°45'0 0.1
2014-Oct-18 03:31N 31°60' E 120°45'0 0.0
2014-Oct-18 02:22N 31°60' E 120°45'0 0.0
2014-Oct-18 01:31N 31°60' E 120°45'0 0.0
2014-Oct-18 00:31N 31°60' E 120°45'0 0.0
2014-Oct-17 23:31N 31°60' E 120°45'0 0.0
2014-Oct-17 22:16N 31°60' E 120°45'0 0.0
2014-Oct-17 21:10N 31°60' E 120°45'0 0.0
2014-Oct-17 20:28N 31°60' E 120°45'0 0.0
2014-Oct-17 19:28N 31°60' E 120°45'2 2.3
2014-Oct-17 18:33N 32°01' E 120°47'6 5.8
2014-Oct-17 17:33N 31°57' E 120°52'7 6.6
2014-Oct-17 16:33N 31°51' E 120°54'6 6.1
2014-Oct-17 15:33N 31°47' E 120°60'7 6.8
2014-Oct-17 14:33N 31°44' E 121°07'8 7.6
2014-Oct-17 13:33N 31°39' E 121°14'8 8.0
2014-Oct-17 12:33N 31°33' E 121°20'8 8.6
2014-Oct-17 11:33N 31°28' E 121°28'8 8.4
2014-Oct-17 10:33N 31°23' E 121°36'9 8.9
2014-Oct-17 09:33N 31°17' E 121°44'  
2014-Oct-14 21:27N 33°41' E 129°54'8 8.2
2014-Oct-14 20:32N 33°45' E 130°02'8 8.0
2014-Oct-14 19:33N 33°50' E 130°10'8 7.8
2014-Oct-14 18:32N 33°54' E 130°18'27 7.9
2014-Oct-14 15:07N 34°02' E 130°49'  
Track history (hours):
 
Tides and Currents Weather Stations Pressure Air Temp Water Temp Dewpoint Dewpoint Depression Visibility Wind Speed Wind Dir Waves Ship Positions

Chang Sheng

Last reported at 2014-Oct-20 10:33 UTC. Time now 2014-Oct-20 11:27 UTC.
Position N 32°02' E 120°29'.

Length 86 m; draft 3.8 m.

Type: Cargo ship. MMSI: 312161000.

Date/timePositionNaut miles runAvg speedWind from/ knotsBaromVisibWave heightAir tempDewpointWater temp
2014-Oct-20 10:33N 32°02' E 120°29'4 4.2
2014-Oct-20 09:29N 31°58' E 120°26'0 0.0
2014-Oct-20 08:29N 31°58' E 120°26'0 0.0
2014-Oct-20 07:32N 31°58' E 120°26'0 0.0
2014-Oct-20 06:32N 31°58' E 120°26'0 0.0
2014-Oct-20 05:29N 31°58' E 120°26'0 0.0
2014-Oct-20 04:32N 31°58' E 120°26'0 0.0
2014-Oct-20 03:29N 31°58' E 120°26'0 0.1
2014-Oct-20 02:29N 31°58' E 120°26'0 0.1
2014-Oct-20 01:29N 31°58' E 120°26'0 0.1
2014-Oct-20 00:32N 31°58' E 120°26'0 0.0
2014-Oct-19 23:29N 31°58' E 120°26'0 0.0
2014-Oct-19 22:32N 31°58' E 120°26'0 0.0
2014-Oct-19 21:32N 31°58' E 120°26'0 0.0
2014-Oct-19 20:29N 31°58' E 120°26'0 0.0
2014-Oct-19 19:32N 31°58' E 120°26'0 0.0
2014-Oct-19 18:32N 31°58' E 120°26'0 0.0
2014-Oct-19 17:30N 31°58' E 120°26'0 0.0
2014-Oct-19 16:32N 31°58' E 120°26'0 0.0
2014-Oct-19 15:32N 31°58' E 120°26'0 0.0
2014-Oct-19 14:29N 31°58' E 120°26'0 0.0
2014-Oct-19 13:32N 31°58' E 120°26'0 0.0
2014-Oct-19 12:26N 31°58' E 120°26'0 0.0
2014-Oct-19 11:30N 31°58' E 120°26'0 0.0
2014-Oct-19 10:29N 31°58' E 120°26'0 0.0
2014-Oct-19 09:29N 31°58' E 120°26'0 0.0
2014-Oct-19 08:29N 31°58' E 120°26'0 0.0
2014-Oct-19 07:32N 31°58' E 120°26'0 0.0
2014-Oct-19 06:32N 31°58' E 120°26'3 3.3
2014-Oct-19 05:33N 32°01' E 120°27'7 7.1
2014-Oct-19 04:33N 32°00' E 120°35'8 7.8
2014-Oct-19 03:33N 32°00' E 120°44'0 0.4
2014-Oct-19 02:31N 31°60' E 120°45'0 0.1
2014-Oct-19 01:28N 31°60' E 120°45'0 0.0
2014-Oct-19 00:31N 31°60' E 120°45'0 0.0
2014-Oct-18 23:22N 31°60' E 120°45'0 0.0
2014-Oct-18 22:28N 31°60' E 120°45'0 0.0
2014-Oct-18 21:31N 31°60' E 120°45'0 0.0
2014-Oct-18 20:31N 31°60' E 120°45'0 0.0
2014-Oct-18 19:31N 31°60' E 120°45'0 0.0
2014-Oct-18 18:28N 31°60' E 120°45'0 0.0
2014-Oct-18 17:28N 31°60' E 120°45'0 0.1
2014-Oct-18 16:28N 31°60' E 120°44'0 0.0
2014-Oct-18 15:22N 31°60' E 120°44'0 0.0
2014-Oct-18 14:22N 31°60' E 120°44'0 0.1
2014-Oct-18 13:31N 31°60' E 120°45'0 0.1
2014-Oct-18 12:25N 31°60' E 120°45'0 0.0
2014-Oct-18 11:31N 31°60' E 120°45'0 0.0
2014-Oct-18 10:28N 31°60' E 120°45'0 0.0
2014-Oct-18 09:28N 31°60' E 120°45'0 0.0
2014-Oct-18 08:31N 31°60' E 120°45'0 0.0
2014-Oct-18 07:31N 31°60' E 120°45'0 0.0
2014-Oct-18 06:28N 31°60' E 120°45'0 0.0
2014-Oct-18 05:28N 31°60' E 120°45'0 0.1
2014-Oct-18 04:31N 31°60' E 120°45'0 0.1
2014-Oct-18 03:31N 31°60' E 120°45'0 0.0
2014-Oct-18 02:22N 31°60' E 120°45'0 0.0
2014-Oct-18 01:31N 31°60' E 120°45'0 0.0
2014-Oct-18 00:31N 31°60' E 120°45'0 0.0
2014-Oct-17 23:31N 31°60' E 120°45'0 0.0
2014-Oct-17 22:16N 31°60' E 120°45'0 0.0
2014-Oct-17 21:10N 31°60' E 120°45'0 0.0
2014-Oct-17 20:28N 31°60' E 120°45'0 0.0
2014-Oct-17 19:28N 31°60' E 120°45'2 2.3
2014-Oct-17 18:33N 32°01' E 120°47'6 5.8
2014-Oct-17 17:33N 31°57' E 120°52'7 6.6
2014-Oct-17 16:33N 31°51' E 120°54'6 6.1
2014-Oct-17 15:33N 31°47' E 120°60'7 6.8
2014-Oct-17 14:33N 31°44' E 121°07'8 7.6
2014-Oct-17 13:33N 31°39' E 121°14'8 8.0
2014-Oct-17 12:33N 31°33' E 121°20'8 8.6
2014-Oct-17 11:33N 31°28' E 121°28'8 8.4
2014-Oct-17 10:33N 31°23' E 121°36'9 8.9
2014-Oct-17 09:33N 31°17' E 121°44'  
2014-Oct-14 21:27N 33°41' E 129°54'8 8.2
2014-Oct-14 20:32N 33°45' E 130°02'8 8.0
2014-Oct-14 19:33N 33°50' E 130°10'8 7.8
2014-Oct-14 18:32N 33°54' E 130°18'27 7.9
2014-Oct-14 15:07N 34°02' E 130°49'  

Dump ship's entire track history